Meath Environmental Platform

Observations for Trim Patrick St

Time AQI Temp °C Hum % Pres Pa CO μg/m³ H₂S μg/m³ NO μg/m³ NO₂ μg/m³ O₃ μg/m³ SO₂ μg/m³ PM1 μg/m³ PM2.5 μg/m³ PM10 μg/m³
Friday 31 July 2026
02:13 2 12 74 38,460 0.28 5.53 4.02 18.97 47.7 0 4.57 8.46 9.3
02:12 2 12.1 74 38,460 0.28 5.51 3.99 23.2 47.5 0 3.71 7.74 8.52
02:11 2 12 74 38,460 0.28 5.95 3.99 26.71 47.81 0 2.86 6.32 6.96
02:09 2 12.1 73 38,460 0.27 5.28 3.91 22.5 45.01 0 4.57 9.26 10.18
02:08 2 12.1 73 38,460 0.3 6.13 3.98 22.94 44.68 0 3.71 7.83 8.61
02:07 2 12.1 73 38,460 0.29 6.26 3.98 31.94 47.62 0 3.71 7.12 7.83
02:06 2 12.1 73 38,460 0.3 5.43 3.97 20.83 41.43 0 3.71 7.84 8.62
02:05 2 12.2 72 38,460 0.28 5.23 3.92 25.45 46.28 0 2.86 7.16 7.87
02:03 2 12.2 73 38,460 0.27 5.93 3.96 18.11 37.16 0 2.86 6.38 7.02
02:02 2 12.2 69 38,460 0.27 6.99 3.83 28.85 49.59 0 3.71 8.08 8.89
02:01 2 12.2 71 38,460 0.27 5.85 3.86 25.52 43.77 0 2.86 7.99 8.79
02:00 2 12.2 71 38,460 0.26 6.16 3.83 20.74 45.04 0 3.71 7.25 7.97
01:58 2 12.3 72 38,459 0.25 7.2 3.87 24.01 46.22 0 2 6.45 7.1
01:57 2 12.3 72 38,459 0.25 7.51 3.66 31.13 48.38 0 2.86 7.21 7.93
01:56 2 12.3 70 38,459 0.26 6.32 3.79 22.26 41.86 0 3.71 7.29 8.02
01:54 2 12.3 73 38,459 0.26 6.58 3.9 25.9 48.33 0 2.86 7.13 7.84
01:53 2 12.3 72 38,459 0.26 6.47 3.83 27.43 46.4 0 2.86 7.21 7.93
01:52 2 12.4 72 38,459 0.26 4.69 3.63 27.38 42.45 0 2.86 8.64 9.5
01:51 2 12.4 71 38,458 0.25 4.77 3.86 13.75 41.78 0 3.71 8.65 9.52
01:50 2 12.4 72 38,458 0.26 6.01 3.89 26.56 46.72 0 3.71 7.9 8.69